Time;durP1;ratioP1;P1;durP2;ratioP2;P2;SDS_P1;SDS_P2;PMS_P1;PMS_P2;Temp;Humidity;BMP_temperature;BMP_pressure;BME280_temperature;BME280_humidity;BME280_pressure;Samples;Min_cycle;Max_cycle;Signal;HPM_P1;HPM_P2
2023/06/15 00:01:21;;;;;;;10.60;8.20;;;;;;;20.24;64.15;100393.58;108861;1256;60003;-78
2023/06/15 00:03:48;;;;;;;11.10;7.60;;;;;;;20.21;64.30;100391.55;107991;1258;73826;-79
2023/06/15 00:06:15;;;;;;;12.90;7.80;;;;;;;20.18;64.30;100389.05;108019;1257;71371;-80
2023/06/15 00:08:42;;;;;;;9.80;8.40;;;;;;;20.14;64.42;100388.98;108074;1254;72686;-80
2023/06/15 00:11:08;;;;;;;12.00;8.00;;;;;;;20.11;64.49;100392.34;108035;1254;61771;-80
2023/06/15 00:13:37;;;;;;;14.30;8.00;;;;;;;20.07;64.54;100390.33;108198;1255;60315;-79
2023/06/15 00:16:04;;;;;;;10.70;8.00;;;;;;;20.06;64.78;100391.41;108093;1254;73737;-79
2023/06/15 00:18:32;;;;;;;9.80;8.20;;;;;;;20.05;64.80;100389.13;108014;1254;72513;-79
2023/06/15 00:21:00;;;;;;;14.60;8.60;;;;;;;20.04;64.90;100390.66;108039;1259;72586;-79
2023/06/15 00:23:29;;;;;;;13.00;8.20;;;;;;;20.04;65.00;100395.59;108077;1256;60920;-79
2023/06/15 00:25:56;;;;;;;11.00;8.30;;;;;;;20.03;65.00;100387.50;107972;1256;60284;-79
2023/06/15 00:28:23;;;;;;;13.10;8.50;;;;;;;20.03;65.08;100387.41;108013;1254;72219;-79
2023/06/15 00:30:50;;;;;;;13.70;8.20;;;;;;;20.02;65.22;100391.81;108065;1257;72748;-78
2023/06/15 00:33:17;;;;;;;11.40;8.10;;;;;;;20.02;65.21;100392.65;107950;1257;72550;-78
2023/06/15 00:35:44;;;;;;;10.30;7.90;;;;;;;20.02;65.16;100394.21;107989;1260;62366;-79
2023/06/15 00:38:11;;;;;;;13.60;8.90;;;;;;;20.02;65.30;100389.86;108053;1254;61036;-79
2023/06/15 00:40:39;;;;;;;10.70;7.50;;;;;;;20.01;65.34;100385.02;108033;1259;73908;-79
2023/06/15 00:43:06;;;;;;;9.00;7.40;;;;;;;20.00;65.33;100380.88;107938;1257;72632;-79
2023/06/15 00:45:35;;;;;;;11.20;7.80;;;;;;;19.99;65.49;100380.46;108251;1256;72702;-79
2023/06/15 00:48:02;;;;;;;11.20;7.70;;;;;;;19.98;65.56;100381.88;108071;1254;61857;-80
2023/06/15 00:50:32;;;;;;;13.30;8.70;;;;;;;19.97;65.60;100381.14;108125;1255;60476;-79
2023/06/15 00:53:03;;;;;;;11.80;7.60;;;;;;;19.95;65.79;100380.29;108096;1254;73743;-79
2023/06/15 00:55:32;;;;;;;11.20;7.80;;;;;;;19.94;65.69;100384.48;107964;1257;72502;-79
2023/06/15 00:57:58;;;;;;;12.90;8.50;;;;;;;19.93;65.78;100381.98;108102;1259;71425;-79
2023/06/15 01:00:28;;;;;;;10.10;7.80;;;;;;;19.93;65.79;100386.23;108041;1255;60840;-79
2023/06/15 01:02:56;;;;;;;10.40;7.20;;;;;;;19.89;65.71;100386.48;108032;1256;60388;-79
2023/06/15 01:05:24;;;;;;;9.90;7.20;;;;;;;19.87;65.75;100383.22;108118;1257;73754;-79
2023/06/15 01:07:52;;;;;;;11.70;8.30;;;;;;;19.83;65.81;100385.44;108129;1258;72637;-79
2023/06/15 01:10:21;;;;;;;9.80;7.30;;;;;;;19.78;66.00;100389.81;108065;1256;72666;-79
2023/06/15 01:12:50;;;;;;;9.90;8.00;;;;;;;19.77;66.26;100392.13;108093;1259;61853;-79
2023/06/15 01:15:17;;;;;;;11.80;8.10;;;;;;;19.75;66.36;100390.90;107975;1254;59243;-79
2023/06/15 01:17:45;;;;;;;13.90;8.40;;;;;;;19.73;66.53;100390.28;108110;1257;73672;-79
2023/06/15 01:20:21;;;;;;;13.30;8.50;;;;;;;19.72;66.65;100384.98;108108;1256;71680;-77
2023/06/15 01:23:33;;;;;;;11.30;8.70;;;;;;;19.70;66.80;100382.78;108113;1254;72390;-79
2023/06/15 01:26:07;;;;;;;14.80;8.90;;;;;;;19.67;66.95;100385.90;108107;1257;61788;-79
2023/06/15 01:28:40;;;;;;;12.10;8.00;;;;;;;19.66;67.05;100389.52;108113;1257;60290;-79
2023/06/15 01:31:09;;;;;;;10.60;8.30;;;;;;;19.66;67.15;100389.22;108062;1257;73596;-80
2023/06/15 01:33:49;;;;;;;11.60;8.80;;;;;;;19.67;67.44;100386.06;108010;1257;73067;-79
2023/06/15 01:36:17;;;;;;;13.10;9.10;;;;;;;19.62;67.70;100385.22;108107;1257;72669;-79
2023/06/15 01:38:45;;;;;;;11.40;8.50;;;;;;;19.63;67.84;100385.36;108097;1254;60431;-79
2023/06/15 01:41:12;;;;;;;11.40;9.10;;;;;;;19.67;67.89;100383.90;108082;1255;60425;-79
2023/06/15 01:43:39;;;;;;;12.10;9.20;;;;;;;19.71;67.96;100385.55;107978;1254;72535;-78
2023/06/15 01:46:07;;;;;;;10.70;8.40;;;;;;;19.73;67.81;100382.71;108130;1257;72761;-79
2023/06/15 01:48:36;;;;;;;10.90;9.30;;;;;;;19.76;67.77;100378.46;107919;1261;72570;-79
2023/06/15 01:51:03;;;;;;;12.70;9.30;;;;;;;19.77;67.69;100377.70;107934;1257;61810;-79
2023/06/15 01:53:31;;;;;;;12.90;8.70;;;;;;;19.80;67.67;100377.27;108054;1254;60421;-79
2023/06/15 01:55:59;;;;;;;10.70;8.40;;;;;;;19.82;67.52;100380.59;108110;1255;74128;-79
2023/06/15 01:58:26;;;;;;;13.30;8.60;;;;;;;19.83;67.53;100376.70;107920;1256;72834;-79
2023/06/15 02:00:53;;;;;;;13.10;9.10;;;;;;;19.86;67.36;100375.37;108079;1254;71889;-79
2023/06/15 02:03:20;;;;;;;13.50;8.90;;;;;;;19.91;67.20;100378.25;108031;1254;61973;-80
2023/06/15 02:05:47;;;;;;;11.30;8.60;;;;;;;19.94;67.15;100377.07;108101;1254;60418;-79
2023/06/15 02:08:14;;;;;;;12.60;8.70;;;;;;;19.99;67.11;100372.52;108096;1259;72268;-79
2023/06/15 02:10:41;;;;;;;12.90;9.10;;;;;;;20.05;66.87;100375.18;108054;1255;72875;-79
2023/06/15 02:13:10;;;;;;;11.60;8.50;;;;;;;20.06;66.73;100376.16;108090;1255;72819;-82
2023/06/15 02:15:38;;;;;;;11.70;8.00;;;;;;;20.08;66.76;100377.94;108160;1257;62003;-79
2023/06/15 02:18:15;;;;;;;12.20;8.40;;;;;;;20.10;66.66;100378.14;108127;1254;60271;-78
2023/06/15 02:20:44;;;;;;;11.60;8.40;;;;;;;20.13;66.66;100379.23;108058;1257;73706;-79
2023/06/15 02:23:11;;;;;;;13.30;9.30;;;;;;;20.18;66.61;100376.73;107992;1257;72611;-79
2023/06/15 02:25:38;;;;;;;11.90;8.90;;;;;;;20.22;66.53;100377.05;108015;1254;71158;-81
2023/06/15 02:28:05;;;;;;;12.30;8.70;;;;;;;20.23;66.42;100376.41;108072;1257;61768;-79
2023/06/15 02:30:33;;;;;;;11.40;8.40;;;;;;;20.26;66.22;100380.77;107987;1257;60276;-78
2023/06/15 02:33:00;;;;;;;14.30;8.00;;;;;;;20.27;66.13;100378.41;108091;1254;73653;-79
2023/06/15 02:35:28;;;;;;;11.60;8.00;;;;;;;20.26;66.09;100376.11;107953;1254;72743;-79
2023/06/15 02:37:55;;;;;;;13.60;8.60;;;;;;;20.28;65.94;100374.42;107994;1254;72555;-79
2023/06/15 02:40:22;;;;;;;10.40;8.40;;;;;;;20.26;65.90;100370.56;107894;1257;60888;-79
2023/06/15 02:42:49;;;;;;;12.80;7.90;;;;;;;20.30;65.85;100371.15;108124;1256;60504;-79
2023/06/15 02:45:17;;;;;;;9.80;7.70;;;;;;;20.30;65.79;100370.41;108008;1257;73770;-79
2023/06/15 02:47:44;;;;;;;12.60;8.10;;;;;;;20.33;65.75;100368.10;108010;1257;72552;-79
2023/06/15 02:50:11;;;;;;;9.50;7.50;;;;;;;20.33;65.66;100365.95;107978;1257;71352;-79
2023/06/15 02:52:46;;;;;;;12.80;8.60;;;;;;;20.40;65.63;100370.02;107949;1257;61968;-79
2023/06/15 02:55:14;;;;;;;12.40;8.70;;;;;;;20.44;65.47;100366.77;108029;1255;60290;-79
2023/06/15 02:57:43;;;;;;;10.20;8.00;;;;;;;20.47;65.51;100366.73;108046;1254;73743;-79
2023/06/15 03:00:36;;;;;;;11.70;8.30;;;;;;;20.52;65.33;100365.70;107973;1257;72767;-79
2023/06/15 03:03:27;;;;;;;12.90;8.20;;;;;;;20.57;65.53;100366.44;108096;1257;72744;-79
2023/06/15 03:05:56;;;;;;;12.50;9.10;;;;;;;20.60;65.32;100360.90;107960;1254;62098;-79
2023/06/15 03:08:23;;;;;;;12.00;8.30;;;;;;;20.65;65.24;100365.71;107969;1254;59001;-79
2023/06/15 03:10:57;;;;;;;11.30;7.40;;;;;;;20.69;65.15;100366.52;108033;1257;72631;-79
2023/06/15 03:13:24;;;;;;;13.10;8.80;;;;;;;20.72;65.10;100365.63;108121;1257;72507;-79
2023/06/15 03:15:52;;;;;;;10.90;8.20;;;;;;;20.74;65.05;100368.56;108060;1257;71412;-79
2023/06/15 03:18:20;;;;;;;10.70;8.30;;;;;;;20.77;64.99;100361.94;108010;1254;62062;-79
2023/06/15 03:20:52;;;;;;;12.60;8.20;;;;;;;20.81;64.83;100361.55;108073;1255;60425;-79
2023/06/15 03:23:19;;;;;;;10.30;8.10;;;;;;;20.88;64.79;100362.95;108023;1255;73688;-80
2023/06/15 03:25:49;;;;;;;11.20;7.70;;;;;;;20.92;64.57;100362.02;108093;1256;72444;-80
2023/06/15 03:28:16;;;;;;;13.40;8.30;;;;;;;20.97;64.51;100362.42;108170;1254;72387;-79
2023/06/15 03:30:46;;;;;;;9.70;7.80;;;;;;;20.99;64.36;100364.71;108008;1257;60427;-79
2023/06/15 03:33:16;;;;;;;10.20;7.80;;;;;;;21.02;64.33;100364.11;107968;1257;60358;-80
2023/06/15 03:35:43;;;;;;;11.80;7.40;;;;;;;21.08;64.27;100362.14;108017;1257;72661;-80
2023/06/15 03:38:11;;;;;;;12.90;8.30;;;;;;;21.13;64.10;100359.45;107966;1254;72573;-79
2023/06/15 03:40:38;;;;;;;11.60;7.80;;;;;;;21.17;63.90;100360.38;108066;1256;70868;-79
2023/06/15 03:43:05;;;;;;;10.80;7.90;;;;;;;21.23;63.96;100361.15;108058;1256;60865;-80
2023/06/15 03:45:33;;;;;;;9.50;7.20;;;;;;;21.27;63.63;100361.69;107919;1260;60305;-79
2023/06/15 03:47:59;;;;;;;13.00;8.00;;;;;;;21.17;63.81;100358.98;107884;1257;73703;-80
2023/06/15 03:50:27;;;;;;;12.40;8.10;;;;;;;21.18;64.01;100361.80;108076;1254;71989;-79
2023/06/15 03:52:54;;;;;;;13.90;7.80;;;;;;;21.21;63.95;100356.29;108012;1260;72485;-79
2023/06/15 03:55:21;;;;;;;12.10;7.90;;;;;;;21.26;63.97;100355.27;108040;1259;60788;-80
2023/06/15 03:57:48;;;;;;;8.30;6.90;;;;;;;21.31;64.07;100354.44;108099;1254;60562;-79
2023/06/15 04:00:15;;;;;;;11.80;8.60;;;;;;;21.37;64.17;100352.90;108080;1254;73789;-79
2023/06/15 04:02:45;;;;;;;12.30;7.90;;;;;;;21.44;64.27;100356.16;108063;1254;72716;-79
2023/06/15 04:05:13;;;;;;;12.70;8.30;;;;;;;21.51;64.18;100355.10;108168;1254;72501;-79
2023/06/15 04:07:40;;;;;;;12.20;8.60;;;;;;;21.61;64.19;100356.61;108122;1254;60793;-79
2023/06/15 04:10:08;;;;;;;12.00;8.90;;;;;;;21.70;64.23;100359.61;108075;1254;60607;-79
2023/06/15 04:12:36;;;;;;;12.50;8.80;;;;;;;21.77;64.08;100364.84;108067;1254;73765;-79
2023/06/15 04:15:03;;;;;;;12.30;9.60;;;;;;;21.85;63.88;100367.89;108000;1254;72584;-79
2023/06/15 04:17:31;;;;;;;11.80;9.80;;;;;;;21.93;63.87;100368.30;108104;1254;72375;-79
2023/06/15 04:19:57;;;;;;;11.90;8.80;;;;;;;22.00;63.64;100368.08;107962;1256;60892;-79
2023/06/15 04:22:25;;;;;;;12.90;9.40;;;;;;;22.08;63.62;100367.31;107882;1254;60342;-79
2023/06/15 04:24:52;;;;;;;11.80;8.20;;;;;;;22.14;63.42;100368.56;108094;1254;73860;-80
2023/06/15 04:27:19;;;;;;;11.70;8.10;;;;;;;22.22;63.05;100364.86;108040;1254;72669;-79
2023/06/15 04:29:49;;;;;;;8.90;7.20;;;;;;;22.29;62.62;100363.20;108033;1256;72752;-79
2023/06/15 04:32:17;;;;;;;11.10;7.30;;;;;;;22.34;62.16;100356.55;108097;1254;61869;-79
2023/06/15 04:34:45;;;;;;;9.70;6.50;;;;;;;22.38;61.54;100359.77;108039;1254;60521;-80
2023/06/15 04:37:13;;;;;;;9.50;6.10;;;;;;;22.38;60.71;100365.14;108164;1254;74308;-80
2023/06/15 04:39:42;;;;;;;10.70;6.60;;;;;;;22.40;60.10;100364.73;107974;1254;72574;-80
2023/06/15 04:42:11;;;;;;;9.30;6.30;;;;;;;22.47;59.93;100365.24;108317;1254;71382;-81
2023/06/15 04:44:38;;;;;;;9.50;6.70;;;;;;;22.55;59.32;100366.19;108059;1257;60519;-81
2023/06/15 04:47:06;;;;;;;8.40;6.10;;;;;;;22.62;58.95;100365.34;108066;1254;60998;-80
2023/06/15 04:49:33;;;;;;;10.50;6.60;;;;;;;22.70;58.51;100366.41;107948;1259;72270;-80
2023/06/15 04:52:01;;;;;;;9.70;6.30;;;;;;;22.74;57.92;100362.56;108066;1255;71448;-81
2023/06/15 04:54:29;;;;;;;9.90;5.80;;;;;;;22.78;57.45;100362.92;108034;1254;72550;-80
2023/06/15 04:56:58;;;;;;;10.50;6.10;;;;;;;22.84;57.13;100362.64;108104;1254;62197;-80
2023/06/15 04:59:26;;;;;;;10.50;6.50;;;;;;;22.91;56.95;100365.25;108126;1254;60361;-80
2023/06/15 05:01:53;;;;;;;12.00;6.80;;;;;;;22.98;56.75;100363.48;108093;1254;73813;-81
2023/06/15 05:04:25;;;;;;;9.50;6.30;;;;;;;23.05;56.09;100365.92;108131;1254;71480;-80
2023/06/15 05:06:52;;;;;;;9.50;6.10;;;;;;;23.10;55.98;100364.90;108026;1254;70227;-79
2023/06/15 05:09:19;;;;;;;11.30;6.30;;;;;;;23.16;55.84;100365.77;108109;1258;61672;-81
2023/06/15 05:11:48;;;;;;;9.90;6.00;;;;;;;23.25;55.39;100365.38;108104;1254;60329;-81
2023/06/15 05:14:15;;;;;;;11.50;5.50;;;;;;;23.32;55.14;100370.87;108064;1257;73748;-81
2023/06/15 05:16:42;;;;;;;8.50;5.90;;;;;;;23.40;55.07;100364.85;108015;1254;71268;-80
2023/06/15 05:19:09;;;;;;;10.00;6.30;;;;;;;23.49;54.53;100368.05;108065;1257;72634;-80
2023/06/15 05:21:37;;;;;;;9.00;6.00;;;;;;;23.57;54.38;100370.60;108011;1255;60450;-80
2023/06/15 05:24:04;;;;;;;7.90;6.00;;;;;;;23.64;54.31;100368.61;108036;1257;60347;-80
2023/06/15 05:26:33;;;;;;;9.30;5.70;;;;;;;23.69;53.90;100367.59;108025;1254;72753;-81
2023/06/15 05:29:06;;;;;;;7.40;5.70;;;;;;;23.69;53.69;100365.67;108194;1255;72584;-81
2023/06/15 05:31:34;;;;;;;6.60;5.60;;;;;;;23.68;53.13;100370.45;108049;1254;71054;-81
2023/06/15 05:34:01;;;;;;;11.00;5.50;;;;;;;23.66;52.91;100369.92;108115;1254;60633;-81
2023/06/15 05:36:30;;;;;;;8.80;5.30;;;;;;;23.65;53.02;100369.26;108309;1255;60319;-80
2023/06/15 05:39:18;;;;;;;12.40;6.10;;;;;;;23.68;53.04;100375.07;108112;1254;73725;-79
2023/06/15 05:41:45;;;;;;;8.80;5.40;;;;;;;23.72;52.44;100375.32;108114;1254;72909;-81
2023/06/15 05:44:12;;;;;;;8.40;5.50;;;;;;;23.77;52.16;100378.64;108333;1256;72481;-80
2023/06/15 05:46:40;;;;;;;9.10;5.40;;;;;;;23.84;52.04;100376.57;108002;1256;61748;-82
2023/06/15 05:49:07;;;;;;;7.80;5.30;;;;;;;23.94;51.81;100374.80;107923;1255;60448;-81
2023/06/15 05:51:35;;;;;;;7.70;5.20;;;;;;;24.06;51.59;100374.00;108096;1259;73750;-81
2023/06/15 05:54:03;;;;;;;9.20;6.00;;;;;;;24.23;51.83;100376.71;108127;1255;72600;-80
2023/06/15 05:56:30;;;;;;;11.30;5.90;;;;;;;24.36;51.40;100376.90;108084;1254;72694;-82
2023/06/15 05:58:57;;;;;;;8.30;5.60;;;;;;;24.51;51.30;100380.23;108025;1254;62250;-79
2023/06/15 06:01:24;;;;;;;10.30;5.90;;;;;;;24.67;51.11;100379.02;108159;1254;60347;-81
2023/06/15 06:03:51;;;;;;;9.40;5.40;;;;;;;24.83;51.21;100378.20;108039;1255;72505;-81
2023/06/15 06:06:18;;;;;;;8.80;5.80;;;;;;;24.97;50.67;100379.66;108094;1256;73015;-81
2023/06/15 06:08:46;;;;;;;8.20;5.90;;;;;;;25.09;50.49;100379.69;108113;1255;72485;-80
2023/06/15 06:11:14;;;;;;;10.40;5.70;;;;;;;25.18;49.83;100385.83;108201;1254;60105;-80
2023/06/15 06:13:44;;;;;;;8.70;5.60;;;;;;;25.27;49.05;100384.13;108150;1254;60402;-80
2023/06/15 06:16:11;;;;;;;6.90;5.10;;;;;;;25.32;49.07;100381.73;107985;1256;73863;-80
2023/06/15 06:18:39;;;;;;;8.10;5.60;;;;;;;25.35;49.22;100383.05;108063;1256;72873;-80
2023/06/15 06:21:06;;;;;;;8.00;5.40;;;;;;;25.44;49.03;100380.70;107834;1257;72379;-80
2023/06/15 06:23:36;;;;;;;9.40;5.80;;;;;;;25.57;49.11;100380.23;107996;1256;60402;-80
2023/06/15 06:26:04;;;;;;;7.70;5.10;;;;;;;25.67;48.86;100382.70;108190;1255;60153;-82
2023/06/15 06:28:34;;;;;;;9.30;5.50;;;;;;;25.77;48.57;100381.86;108135;1254;73668;-80
2023/06/15 06:31:00;;;;;;;8.20;5.10;;;;;;;25.86;48.05;100381.65;108148;1254;72559;-86
2023/06/15 06:33:27;;;;;;;8.60;5.40;;;;;;;25.93;47.95;100377.07;108079;1254;72722;-81
2023/06/15 06:35:55;;;;;;;9.40;4.70;;;;;;;26.06;48.00;100376.28;108054;1254;61131;-81
2023/06/15 06:38:21;;;;;;;8.00;4.30;;;;;;;26.23;47.28;100371.39;108131;1254;60772;-81
2023/06/15 06:40:48;;;;;;;7.20;4.60;;;;;;;26.42;46.85;100372.06;108049;1254;72378;-80
2023/06/15 06:43:15;;;;;;;7.80;4.70;;;;;;;26.64;46.48;100365.12;108110;1254;71757;-81
2023/06/15 06:45:42;;;;;;;7.80;4.20;;;;;;;26.82;45.05;100360.27;108119;1254;72493;-81
2023/06/15 06:48:09;;;;;;;7.60;4.20;;;;;;;26.91;43.40;100360.55;108115;1254;60264;-81
2023/06/15 06:50:37;;;;;;;9.10;4.50;;;;;;;26.98;43.99;100355.06;108188;1254;60332;-79
2023/06/15 06:53:04;;;;;;;8.20;4.70;;;;;;;27.08;43.28;100357.85;108110;1254;74120;-80
2023/06/15 06:55:30;;;;;;;8.70;4.60;;;;;;;27.18;43.17;100357.30;108048;1254;72094;-81
2023/06/15 06:58:00;;;;;;;8.20;4.00;;;;;;;27.34;42.72;100360.36;108055;1258;72470;-81
2023/06/15 07:00:28;;;;;;;6.00;3.90;;;;;;;27.46;42.18;100356.25;108069;1257;60297;-81
2023/06/15 07:02:55;;;;;;;7.60;4.10;;;;;;;27.52;41.49;100353.27;108066;1255;60175;-81
2023/06/15 07:05:22;;;;;;;8.30;4.10;;;;;;;27.60;41.85;100348.86;108015;1256;73891;-81
2023/06/15 07:07:49;;;;;;;8.50;4.20;;;;;;;27.67;40.91;100346.66;108058;1255;72603;-79
2023/06/15 07:10:16;;;;;;;6.50;3.80;;;;;;;27.70;40.94;100346.38;108084;1257;72651;-80
2023/06/15 07:12:43;;;;;;;5.90;3.70;;;;;;;27.76;41.69;100347.23;108066;1254;60731;-81
2023/06/15 07:15:10;;;;;;;6.70;3.60;;;;;;;27.84;40.34;100348.64;108113;1256;60279;-80
2023/06/15 07:17:37;;;;;;;5.20;3.50;;;;;;;27.83;39.69;100352.48;108053;1255;65112;-81
2023/06/15 07:20:05;;;;;;;5.70;3.40;;;;;;;27.77;39.59;100350.15;108052;1256;63936;-82
2023/06/15 07:22:32;;;;;;;5.50;3.10;;;;;;;27.73;38.81;100353.06;108076;1257;63891;-81
2023/06/15 07:24:59;;;;;;;7.10;3.40;;;;;;;27.73;39.00;100353.15;108082;1257;60445;-81
2023/06/15 07:27:26;;;;;;;5.60;3.10;;;;;;;27.81;38.69;100347.90;108071;1257;60430;-80
2023/06/15 07:29:54;;;;;;;6.90;3.20;;;;;;;27.84;38.74;100347.86;108636;1257;73823;-82
2023/06/15 07:32:21;;;;;;;5.30;3.00;;;;;;;27.90;38.76;100348.77;108085;1257;71534;-80
2023/06/15 07:34:48;;;;;;;5.50;3.30;;;;;;;28.01;37.91;100351.30;108032;1257;64100;-81
2023/06/15 07:37:15;;;;;;;6.20;3.10;;;;;;;28.10;37.42;100349.56;108034;1257;170385;-85
2023/06/15 07:39:41;;;;;;;6.00;3.20;;;;;;;28.17;37.52;100352.12;108105;1255;60338;-83
2023/06/15 07:42:09;;;;;;;6.40;3.30;;;;;;;28.27;37.34;100340.57;108022;1257;73709;-81
2023/06/15 07:44:36;;;;;;;5.70;3.30;;;;;;;28.30;36.90;100348.05;108114;1257;72759;-80
2023/06/15 07:47:03;;;;;;;6.80;3.30;;;;;;;28.28;37.29;100348.19;108206;1255;72694;-83
2023/06/15 07:49:30;;;;;;;7.10;3.10;;;;;;;28.26;37.46;100342.52;108119;1257;59677;-81
2023/06/15 07:52:12;;;;;;;5.20;2.60;;;;;;;28.28;37.40;100340.35;108370;1256;60402;-80
2023/06/15 07:54:40;;;;;;;5.30;3.00;;;;;;;28.30;37.46;100342.32;108287;1256;73751;-81
2023/06/15 07:57:07;;;;;;;7.00;3.50;;;;;;;28.29;37.43;100339.65;108105;1255;64395;-80
2023/06/15 07:59:33;;;;;;;5.50;2.70;;;;;;;28.28;37.21;100341.84;108093;1256;73159;-81
2023/06/15 08:02:02;;;;;;;6.30;2.90;;;;;;;28.37;37.45;100351.39;108075;1256;60462;-81
2023/06/15 08:04:30;;;;;;;5.20;3.10;;;;;;;28.51;36.92;100346.79;108150;1254;59334;-80
2023/06/15 08:06:57;;;;;;;5.40;3.30;;;;;;;28.59;36.38;100345.98;108090;1256;73882;-80
2023/06/15 08:09:25;;;;;;;6.50;3.30;;;;;;;28.64;36.68;100347.09;108119;1257;64067;-81
2023/06/15 08:11:51;;;;;;;5.20;2.80;;;;;;;28.72;36.49;100350.98;108083;1254;62614;-80
2023/06/15 08:14:19;;;;;;;5.30;2.60;;;;;;;28.81;36.15;100354.16;108102;1256;60288;-81
2023/06/15 08:16:46;;;;;;;6.90;2.90;;;;;;;28.88;35.41;100350.83;108110;1256;60450;-80
2023/06/15 08:19:13;;;;;;;5.60;2.60;;;;;;;28.91;35.18;100351.70;108151;1256;63821;-81
2023/06/15 08:21:43;;;;;;;4.40;3.30;;;;;;;28.90;35.35;100353.89;108161;1255;72604;-79
2023/06/15 08:24:10;;;;;;;6.00;2.70;;;;;;;28.87;35.68;100352.78;108103;1257;72823;-81
2023/06/15 08:26:38;;;;;;;7.00;3.00;;;;;;;28.84;36.06;100350.25;108139;1256;60414;-80
2023/06/15 08:29:05;;;;;;;4.70;2.80;;;;;;;28.76;36.14;100355.00;108173;1257;60434;-82
2023/06/15 08:31:50;;;;;;;5.90;3.00;;;;;;;28.66;35.99;100354.95;108170;1254;65246;-81
2023/06/15 08:34:17;;;;;;;9.20;3.30;;;;;;;28.61;36.44;100350.30;108140;1254;72610;-81
2023/06/15 08:36:46;;;;;;;6.00;3.40;;;;;;;28.64;36.38;100353.77;108176;1254;72341;-80
2023/06/15 08:39:13;;;;;;;5.70;3.00;;;;;;;28.68;36.38;100352.45;108207;1254;60329;-80
2023/06/15 08:41:40;;;;;;;5.90;3.10;;;;;;;28.79;35.95;100353.38;108184;1254;59317;-81
2023/06/15 08:44:07;;;;;;;5.60;2.90;;;;;;;28.90;35.60;100349.17;108180;1254;65205;-80
2023/06/15 08:46:35;;;;;;;4.80;3.40;;;;;;;28.96;36.10;100346.54;108052;1254;64124;-80
2023/06/15 08:49:03;;;;;;;6.00;2.80;;;;;;;29.00;35.81;100348.36;108041;1254;63192;-79
2023/06/15 08:51:31;;;;;;;7.20;2.80;;;;;;;29.01;35.23;100349.33;108111;1254;60456;-80
2023/06/15 08:53:58;;;;;;;5.70;3.00;;;;;;;28.96;35.04;100350.62;107980;1254;61316;-84
2023/06/15 08:56:26;;;;;;;7.00;3.60;;;;;;;28.95;35.82;100351.87;108158;1254;65319;-82
2023/06/15 08:58:54;;;;;;;6.60;2.90;;;;;;;28.93;35.32;100350.67;108153;1254;64062;-82
2023/06/15 09:01:22;;;;;;;5.80;3.10;;;;;;;28.86;35.32;100354.83;107896;1254;65624;-83
2023/06/15 09:03:51;;;;;;;7.10;3.30;;;;;;;28.79;35.35;100353.06;108080;1258;60359;-81
2023/06/15 09:06:22;;;;;;;5.70;2.70;;;;;;;28.74;36.07;100356.26;108118;1254;59562;-83
2023/06/15 09:08:51;;;;;;;7.80;3.20;;;;;;;28.72;36.55;100359.92;108037;1254;64145;-82
2023/06/15 09:11:18;;;;;;;7.20;3.40;;;;;;;28.72;35.81;100355.54;108062;1254;62529;-82
2023/06/15 09:13:46;;;;;;;5.10;2.80;;;;;;;28.64;35.92;100357.94;108092;1254;62535;-81
2023/06/15 09:16:13;;;;;;;8.10;3.00;;;;;;;28.57;36.74;100353.58;108088;1256;60443;-83
2023/06/15 09:18:53;;;;;;;4.40;2.90;;;;;;;28.57;37.52;100354.99;108049;1255;61574;-82
2023/06/15 09:21:23;;;;;;;6.00;3.40;;;;;;;28.57;36.74;100354.67;108060;1254;66290;-81
2023/06/15 09:23:50;;;;;;;5.00;3.00;;;;;;;28.52;36.91;100356.21;108114;1254;72805;-82
2023/06/15 09:26:25;;;;;;;6.80;3.20;;;;;;;28.57;37.32;100356.88;108213;1254;64997;-81
2023/06/15 09:28:56;;;;;;;5.90;3.30;;;;;;;28.64;36.29;100352.27;108094;1256;60408;-82
2023/06/15 09:43:16;;;;;;;5.80;2.50;;;;;;;28.13;36.33;100356.52;105653;1285;605059;-82
2023/06/15 09:45:53;;;;;;;6.80;2.90;;;;;;;28.43;35.73;100352.63;107245;1266;140986;-84
2023/06/15 09:48:21;;;;;;;7.10;2.90;;;;;;;28.30;35.84;100354.40;107374;1266;60063;-82
2023/06/15 09:50:50;;;;;;;6.20;2.90;;;;;;;28.23;35.94;100356.63;107377;1267;72040;-83
2023/06/15 09:53:18;;;;;;;5.30;2.70;;;;;;;28.18;35.80;100358.80;107435;1271;71761;-84
2023/06/15 09:55:46;;;;;;;5.40;2.80;;;;;;;28.15;36.38;100361.69;107301;1266;63745;-83
2023/06/15 09:58:14;;;;;;;6.60;2.80;;;;;;;28.16;36.35;100359.73;107283;1266;59476;-83
2023/06/15 10:00:42;;;;;;;5.30;2.70;;;;;;;28.17;36.50;100365.14;107299;1266;60003;-83
2023/06/15 10:03:11;;;;;;;5.60;2.90;;;;;;;28.21;36.66;100366.66;107281;1266;71934;-83
2023/06/15 10:05:43;;;;;;;6.90;3.00;;;;;;;28.21;36.38;100367.52;107313;1269;63970;-83
2023/06/15 10:08:14;;;;;;;6.00;3.10;;;;;;;28.17;36.55;100369.61;107703;1260;71465;-82
2023/06/15 10:10:43;;;;;;;4.60;2.80;;;;;;;28.16;36.50;100367.17;107601;1260;59848;-82
2023/06/15 10:13:20;;;;;;;5.20;2.80;;;;;;;28.21;36.45;100371.05;107728;1260;59474;-82
2023/06/15 10:15:52;;;;;;;6.60;2.90;;;;;;;28.22;36.43;100370.36;107608;1260;73054;-82
2023/06/15 10:18:20;;;;;;;6.20;3.10;;;;;;;28.21;37.08;100370.90;107713;1260;63777;-83
2023/06/15 10:20:49;;;;;;;5.60;3.10;;;;;;;28.26;37.48;100369.92;107677;1264;63781;-81
2023/06/15 10:23:17;;;;;;;4.60;2.70;;;;;;;28.35;37.03;100368.56;107549;1260;59509;-81
2023/06/15 10:25:51;;;;;;;4.10;3.00;;;;;;;28.45;37.12;100365.21;107559;1263;60134;-81
2023/06/15 10:28:23;;;;;;;6.00;3.00;;;;;;;28.56;36.87;100365.34;107585;1260;64182;-84
2023/06/15 10:31:09;;;;;;;;;;;;;;;28.68;35.92;100364.24;107567;1265;72017;-82
2023/06/15 10:33:51;;;;;;;7.20;3.30;;;;;;;28.76;35.88;100362.30;107999;1256;72699;-83
2023/06/15 10:36:23;;;;;;;5.80;2.90;;;;;;;28.87;36.12;100361.02;107997;1256;59686;-84
2023/06/15 10:38:58;;;;;;;9.00;3.00;;;;;;;29.06;36.21;100361.29;107992;1256;60082;-82
2023/06/15 10:41:26;;;;;;;7.00;3.20;;;;;;;29.24;36.08;100363.01;107996;1257;64133;-83
2023/06/15 10:44:01;;;;;;;7.70;3.30;;;;;;;29.45;36.19;100361.95;107845;1257;63761;-83
2023/06/15 10:46:38;;;;;;;6.30;3.00;;;;;;;29.66;35.69;100358.93;107965;1257;64189;-81
2023/06/15 10:49:07;;;;;;;7.70;3.60;;;;;;;29.85;35.36;100352.97;108057;1257;60184;-81
2023/06/15 10:51:54;;;;;;;5.60;3.20;;;;;;;30.03;34.82;100352.17;108038;1256;59563;-81
2023/06/15 10:54:24;;;;;;;6.70;3.50;;;;;;;30.18;33.95;100353.44;107952;1257;63077;-82
2023/06/15 10:56:55;;;;;;;10.60;3.30;;;;;;;30.21;33.28;100350.30;107957;1257;64738;-83
2023/06/15 10:59:41;;;;;;;6.30;3.10;;;;;;;30.16;33.28;100353.51;108054;1257;64175;-82
2023/06/15 11:02:27;;;;;;;6.30;3.20;;;;;;;30.10;33.52;100352.48;107999;1256;59576;-82
2023/06/15 11:05:08;;;;;;;8.60;3.50;;;;;;;30.10;33.59;100353.67;108177;1257;59633;-83
2023/06/15 11:07:41;;;;;;;7.10;3.40;;;;;;;30.11;33.30;100350.91;108016;1259;64099;-82
2023/06/15 11:10:28;;;;;;;5.10;3.30;;;;;;;30.10;33.47;100348.23;108029;1256;62672;-82
2023/06/15 11:13:03;;;;;;;7.50;3.10;;;;;;;30.16;33.65;100350.45;107963;1257;63767;-82
2023/06/15 11:15:35;;;;;;;6.20;2.90;;;;;;;30.22;33.41;100349.60;108037;1255;59604;-81
2023/06/15 11:18:04;;;;;;;6.80;3.10;;;;;;;30.19;33.32;100347.54;108041;1257;59346;-83
2023/06/15 11:20:39;;;;;;;5.70;2.90;;;;;;;30.12;33.16;100345.48;108016;1257;64177;-82
2023/06/15 11:23:11;;;;;;;7.40;3.30;;;;;;;30.05;32.87;100347.55;107999;1257;62501;-82
2023/06/15 11:25:43;;;;;;;5.30;3.00;;;;;;;30.00;32.92;100343.14;107965;1260;63744;-83
2023/06/15 11:28:11;;;;;;;7.10;3.20;;;;;;;30.00;32.95;100346.38;107902;1257;59541;-81
2023/06/15 11:31:02;;;;;;;7.80;3.10;;;;;;;30.08;32.88;100344.48;108027;1258;59377;-82
2023/06/15 11:33:31;;;;;;;8.40;3.30;;;;;;;30.23;33.47;100340.78;108133;1258;64940;-83
2023/06/15 11:36:06;;;;;;;5.70;3.40;;;;;;;30.35;33.38;100339.66;108100;1258;62535;-83